Time;durP1;ratioP1;P1;durP2;ratioP2;P2;SDS_P1;SDS_P2;PMS_P1;PMS_P2;Temp;Humidity;BMP_temperature;BMP_pressure;BME280_temperature;BME280_humidity;BME280_pressure;Samples;Min_cycle;Max_cycle;Signal;HPM_P1;HPM_P2
2021/06/18 00:02:01;;;;;;;28.23;24.65;;;;;;;20.68;100.00;101370.69;3586694;39;20041;-62
2021/06/18 00:04:27;;;;;;;33.28;25.65;;;;;;;20.64;100.00;101376.50;3585841;39;20040;-64
2021/06/18 00:06:55;;;;;;;27.42;24.45;;;;;;;20.65;100.00;101377.34;3587950;39;20112;-63
2021/06/18 00:09:21;;;;;;;29.65;26.55;;;;;;;20.53;100.00;101363.28;3587384;39;20048;-63
2021/06/18 00:11:48;;;;;;;29.52;24.73;;;;;;;20.62;100.00;101364.88;3586212;39;20577;-63
2021/06/18 00:14:14;;;;;;;31.90;25.48;;;;;;;20.55;100.00;101365.84;3586354;39;20080;-64
2021/06/18 00:16:41;;;;;;;40.70;29.48;;;;;;;20.41;100.00;101367.56;3586042;39;20388;-63
2021/06/18 00:19:07;;;;;;;29.83;25.67;;;;;;;20.51;100.00;101368.13;3587261;39;20040;-63
2021/06/18 00:21:34;;;;;;;31.45;25.30;;;;;;;20.55;100.00;101355.75;3587228;39;20059;-64
2021/06/18 00:24:02;;;;;;;31.45;24.58;;;;;;;20.55;100.00;101357.63;3586897;39;21650;-64
2021/06/18 00:26:28;;;;;;;30.40;26.80;;;;;;;20.53;100.00;101363.28;3588204;39;20048;-64
2021/06/18 00:28:55;;;;;;;31.50;27.45;;;;;;;20.52;100.00;101360.75;3587263;39;20046;-64
2021/06/18 00:31:21;;;;;;;34.75;27.88;;;;;;;20.43;100.00;101358.09;3587377;39;20384;-65
2021/06/18 00:33:47;;;;;;;36.38;28.67;;;;;;;20.35;100.00;101360.13;3587826;39;20045;-64
2021/06/18 00:36:14;;;;;;;33.38;29.00;;;;;;;20.34;100.00;101363.88;3586424;39;20390;-64
2021/06/18 00:38:40;;;;;;;35.83;29.77;;;;;;;20.33;100.00;101359.44;3588072;39;20079;-63
2021/06/18 00:41:09;;;;;;;33.58;29.52;;;;;;;20.37;100.00;101364.34;3586265;39;20088;-64
2021/06/18 00:43:36;;;;;;;32.90;29.50;;;;;;;20.47;100.00;101364.91;3588294;39;20112;-65
2021/06/18 00:46:02;;;;;;;33.55;29.95;;;;;;;20.40;100.00;101369.41;3586489;39;20040;-63
2021/06/18 00:48:29;;;;;;;35.72;31.05;;;;;;;20.29;100.00;101361.72;3588493;39;20073;-63
2021/06/18 00:50:55;;;;;;;39.95;32.15;;;;;;;20.25;100.00;101360.38;3586324;39;20055;-63
2021/06/18 00:53:22;;;;;;;39.25;31.98;;;;;;;20.27;100.00;101350.09;3587401;39;20079;-64
2021/06/18 00:55:50;;;;;;;40.60;33.05;;;;;;;20.11;100.00;101338.34;3587247;39;20055;-63
2021/06/18 00:58:17;;;;;;;42.00;30.75;;;;;;;20.16;100.00;101329.56;3586400;39;20055;-63
2021/06/18 01:04:04;;;;;;;37.22;33.22;;;;;;;20.07;100.00;101338.91;3597356;23;20060;-63
2021/06/18 01:06:37;;;;;;;40.40;32.63;;;;;;;20.09;100.00;101337.66;3577040;40;20058;-62
2021/06/18 01:09:07;;;;;;;36.17;32.05;;;;;;;20.10;100.00;101322.97;3576701;40;20060;-63
2021/06/18 01:11:46;;;;;;;40.47;35.58;;;;;;;20.00;100.00;101313.34;3576161;40;20393;-63
2021/06/18 01:14:19;;;;;;;40.20;34.60;;;;;;;20.05;100.00;101327.28;3576376;40;20061;-63
2021/06/18 01:16:52;;;;;;;43.97;34.88;;;;;;;20.01;100.00;101328.69;3576153;40;20061;-63
2021/06/18 01:19:25;;;;;;;39.83;34.03;;;;;;;19.98;100.00;101327.19;3577306;40;20425;-64
2021/06/18 01:21:54;;;;;;;41.75;35.63;;;;;;;20.03;100.00;101319.28;3577078;40;20058;-64
2021/06/18 01:24:35;;;;;;;37.67;33.58;;;;;;;19.98;100.00;101324.47;3575012;40;20137;-63
2021/06/18 01:27:28;;;;;;;44.72;34.65;;;;;;;20.01;100.00;101320.50;3577521;40;20055;-63
2021/06/18 01:29:59;;;;;;;42.13;35.20;;;;;;;20.00;100.00;101324.28;3576987;40;20037;-63
2021/06/18 01:32:33;;;;;;;42.60;33.45;;;;;;;20.05;100.00;101316.34;3577304;40;20041;-64
2021/06/18 01:35:00;;;;;;;38.35;32.38;;;;;;;20.00;100.00;101302.44;3575088;40;20135;-65
2021/06/18 01:37:30;;;;;;;39.55;32.55;;;;;;;19.97;100.00;101300.06;3575381;40;20360;-63
2021/06/18 01:40:00;;;;;;;43.40;33.53;;;;;;;19.90;100.00;101297.22;3575893;40;20090;-63
2021/06/18 01:42:28;;;;;;;38.42;33.83;;;;;;;19.84;100.00;101293.34;3576347;40;20092;-64
2021/06/18 01:44:57;;;;;;;41.40;33.25;;;;;;;19.84;100.00;101287.88;3574315;40;20389;-64
2021/06/18 01:47:24;;;;;;;39.45;34.22;;;;;;;19.84;100.00;101298.81;3576307;40;20391;-63
2021/06/18 01:49:52;;;;;;;41.53;34.75;;;;;;;19.86;100.00;101302.22;3577748;40;20088;-63
2021/06/18 01:52:21;;;;;;;40.10;35.70;;;;;;;19.74;100.00;101301.81;3577043;40;20075;-63
2021/06/18 01:54:50;;;;;;;40.35;33.80;;;;;;;19.78;100.00;101286.75;3576257;40;20043;-64
2021/06/18 01:57:17;;;;;;;41.28;34.10;;;;;;;19.75;100.00;101288.97;3576450;40;20045;-64
2021/06/18 01:59:46;;;;;;;42.63;34.33;;;;;;;19.80;100.00;101308.41;3576691;40;20382;-64
2021/06/18 02:02:15;;;;;;;;;;;;;;;19.83;100.00;101307.19;3576125;39;22728;-63
2021/06/18 02:04:42;;;;;;;40.97;33.75;;;;;;;19.92;100.00;101314.25;3584530;39;19936;-63
2021/06/18 02:07:10;;;;;;;33.92;29.60;;;;;;;19.98;100.00;101326.34;3586436;40;20051;-64
2021/06/18 02:09:40;;;;;;;35.80;31.88;;;;;;;19.99;100.00;101331.59;3585350;39;20047;-63
2021/06/18 02:12:08;;;;;;;34.08;30.30;;;;;;;20.08;100.00;101318.72;3586209;39;20059;-64
2021/06/18 02:14:36;;;;;;;38.05;32.10;;;;;;;19.97;100.00;101316.47;3585433;40;20037;-64
2021/06/18 02:17:05;;;;;;;36.75;32.72;;;;;;;19.98;100.00;101315.41;3586205;40;20044;-64
2021/06/18 02:19:36;;;;;;;36.47;31.00;;;;;;;19.98;100.00;101309.94;3586311;40;20040;-64
2021/06/18 02:22:06;;;;;;;38.08;33.70;;;;;;;19.91;100.00;101313.44;3587406;40;20036;-64
2021/06/18 02:24:34;;;;;;;38.03;31.15;;;;;;;19.98;100.00;101327.19;3585853;40;20076;-65
2021/06/18 02:27:02;;;;;;;37.20;31.30;;;;;;;20.02;100.00;101322.19;3586184;39;20052;-64
2021/06/18 02:29:29;;;;;;;38.75;31.08;;;;;;;20.05;100.00;101317.22;3587031;40;20058;-64
2021/06/18 02:31:59;;;;;;;35.83;30.95;;;;;;;20.03;100.00;101310.25;3586636;40;20071;-64
2021/06/18 02:34:25;;;;;;;34.05;30.42;;;;;;;20.04;100.00;101310.06;3585734;39;20060;-64
2021/06/18 02:36:53;;;;;;;35.80;31.52;;;;;;;19.95;100.00;101312.03;3588187;39;20074;-63
2021/06/18 02:39:20;;;;;;;37.65;31.75;;;;;;;20.04;100.00;101315.53;3587955;39;20047;-63
2021/06/18 02:41:46;;;;;;;38.45;32.95;;;;;;;20.04;100.00;101301.84;3588139;39;20407;-63
2021/06/18 02:44:13;;;;;;;39.08;32.20;;;;;;;20.05;100.00;101308.16;3587816;39;20082;-63
2021/06/18 02:46:44;;;;;;;35.67;30.90;;;;;;;20.08;100.00;101316.84;3588693;40;20050;-64
2021/06/18 02:49:14;;;;;;;39.05;31.35;;;;;;;20.11;100.00;101315.59;3587556;40;20344;-65
2021/06/18 02:51:44;;;;;;;39.53;33.75;;;;;;;20.07;100.00;101317.88;3588027;40;20090;-64
2021/06/18 02:54:20;;;;;;;42.03;34.25;;;;;;;20.09;100.00;101324.00;3587352;40;20404;-64
2021/06/18 02:56:50;;;;;;;36.97;32.88;;;;;;;20.08;100.00;101337.84;3588257;40;20059;-63
2021/06/18 02:59:22;;;;;;;39.53;32.63;;;;;;;20.04;100.00;101337.38;3588126;40;20355;-63
2021/06/18 03:01:51;;;;;;;40.45;33.38;;;;;;;20.06;100.00;101320.78;3587218;40;20048;-65
2021/06/18 03:04:22;;;;;;;42.13;32.70;;;;;;;20.04;100.00;101326.44;3585339;40;20056;-64
2021/06/18 03:06:51;;;;;;;37.08;31.63;;;;;;;20.00;100.00;101322.38;3586571;39;20087;-64
2021/06/18 03:09:23;;;;;;;39.13;33.20;;;;;;;19.99;100.00;101317.13;3586314;40;20075;-63
2021/06/18 03:11:50;;;;;;;39.17;33.88;;;;;;;20.00;100.00;101302.44;3587582;40;20098;-64
2021/06/18 03:14:20;;;;;;;40.55;35.70;;;;;;;20.02;100.00;101306.66;3585883;39;20142;-64
2021/06/18 03:16:49;;;;;;;41.35;33.90;;;;;;;19.91;100.00;101307.13;3586631;39;20040;-64
2021/06/18 03:19:19;;;;;;;40.10;33.58;;;;;;;20.04;100.00;101309.22;3587611;40;20036;-64
2021/06/18 03:21:48;;;;;;;40.58;34.10;;;;;;;20.05;100.00;101313.63;3588580;40;20056;-64
2021/06/18 03:26:46;;;;;;;41.40;32.92;;;;;;;20.06;100.00;101326.25;3609545;22;20148;-63
2021/06/18 03:29:14;;;;;;;39.53;32.73;;;;;;;20.11;100.00;101324.66;3586660;39;20046;-63
2021/06/18 03:31:43;;;;;;;40.20;34.22;;;;;;;20.18;100.00;101323.91;3586461;39;20280;-65
2021/06/18 03:34:10;;;;;;;40.00;32.75;;;;;;;20.21;100.00;101318.06;3585909;39;20114;-64
2021/06/18 03:36:38;;;;;;;38.08;30.17;;;;;;;20.26;100.00;101319.19;3587579;39;20289;-64
2021/06/18 03:39:05;;;;;;;38.65;31.88;;;;;;;20.28;100.00;101317.09;3586272;39;20428;-64
2021/06/18 03:41:31;;;;;;;39.03;33.85;;;;;;;20.18;100.00;101322.00;3588046;39;20036;-64
2021/06/18 03:44:00;;;;;;;40.80;32.80;;;;;;;20.25;100.00;101322.97;3587842;39;20049;-65
2021/06/18 03:46:28;;;;;;;39.70;34.03;;;;;;;20.46;100.00;101329.53;3586799;39;20564;-64
2021/06/18 03:48:57;;;;;;;42.92;35.47;;;;;;;20.49;100.00;101334.63;3587869;39;20068;-63
2021/06/18 03:51:23;;;;;;;39.42;32.33;;;;;;;20.60;100.00;101339.63;3587940;39;20282;-64
2021/06/18 03:53:50;;;;;;;46.65;34.20;;;;;;;20.64;100.00;101349.16;3587236;40;20078;-66
2021/06/18 03:56:18;;;;;;;40.63;34.00;;;;;;;20.70;100.00;101382.25;3587461;39;20314;-66
2021/06/18 03:58:46;;;;;;;40.28;31.35;;;;;;;20.53;100.00;101407.03;3587016;39;20063;-63
2021/06/18 04:01:15;;;;;;;37.03;31.52;;;;;;;20.46;100.00;101419.78;3586503;39;20383;-63
2021/06/18 04:03:43;;;;;;;41.10;35.08;;;;;;;20.48;100.00;101445.91;3587818;39;20438;-65
2021/06/18 04:06:11;;;;;;;44.60;35.70;;;;;;;20.45;100.00;101470.00;3585871;39;20052;-63
2021/06/18 04:08:38;;;;;;;41.55;37.10;;;;;;;20.19;100.00;101482.25;3586459;39;20050;-65
2021/06/18 04:11:06;;;;;;;45.97;37.55;;;;;;;20.08;100.00;101480.81;3585968;39;20056;-63
2021/06/18 04:13:33;;;;;;;41.15;36.25;;;;;;;20.13;100.00;101463.84;3585937;39;20063;-65
2021/06/18 04:16:00;;;;;;;38.05;33.45;;;;;;;20.09;100.00;101452.41;3588252;39;20072;-63
2021/06/18 04:18:31;;;;;;;46.88;37.25;;;;;;;20.25;100.00;101437.75;3587394;39;20050;-64
2021/06/18 04:20:59;;;;;;;67.47;44.88;;;;;;;20.19;100.00;101383.84;3587273;40;20048;-67
2021/06/18 04:23:28;;;;;;;58.15;42.08;;;;;;;20.04;100.00;101386.56;3587085;39;20063;-66
2021/06/18 04:25:55;;;;;;;59.97;46.28;;;;;;;20.01;100.00;101413.38;3587829;39;20056;-66
2021/06/18 04:28:21;;;;;;;59.88;48.53;;;;;;;20.05;100.00;101425.66;3586164;39;20088;-66
2021/06/18 04:30:48;;;;;;;65.25;52.45;;;;;;;19.81;100.00;101416.66;3588698;40;20080;-65
2021/06/18 04:33:14;;;;;;;62.08;48.92;;;;;;;19.84;100.00;101402.63;3585864;39;20046;-65
2021/06/18 04:35:42;;;;;;;52.08;46.40;;;;;;;19.84;100.00;101423.63;3585705;39;20044;-66
2021/06/18 04:38:09;;;;;;;70.35;53.05;;;;;;;19.80;100.00;101460.53;3586495;39;20048;-65
2021/06/18 04:40:36;;;;;;;69.57;53.45;;;;;;;19.84;100.00;101484.56;3587570;40;20060;-67
2021/06/18 04:43:03;;;;;;;79.05;53.10;;;;;;;19.93;100.00;101505.34;3586111;40;20063;-63
2021/06/18 04:45:29;;;;;;;79.70;56.15;;;;;;;19.93;100.00;101532.66;3586523;39;20073;-64
2021/06/18 04:47:57;;;;;;;77.22;55.70;;;;;;;19.90;100.00;101522.06;3587707;39;20052;-64
2021/06/18 04:50:24;;;;;;;80.38;57.75;;;;;;;19.90;100.00;101508.41;3586467;40;20056;-65
2021/06/18 04:52:52;;;;;;;77.25;57.30;;;;;;;19.91;100.00;101484.69;3588565;39;20067;-64
2021/06/18 04:55:19;;;;;;;66.32;52.60;;;;;;;19.90;100.00;101472.06;3586810;39;20409;-64
2021/06/18 04:57:47;;;;;;;79.93;58.10;;;;;;;19.87;100.00;101472.44;3586766;39;20568;-64
2021/06/18 05:00:15;;;;;;;87.63;61.50;;;;;;;19.93;100.00;101475.28;3586410;40;20074;-65
2021/06/18 05:02:42;;;;;;;81.15;62.92;;;;;;;19.94;100.00;101467.94;3587369;39;20056;-65
2021/06/18 05:05:09;;;;;;;78.60;59.03;;;;;;;20.08;100.00;101449.88;3585816;39;20046;-64
2021/06/18 05:07:36;;;;;;;69.10;54.90;;;;;;;19.95;100.00;101443.16;3586054;39;20044;-65
2021/06/18 05:10:05;;;;;;;68.97;53.28;;;;;;;19.97;100.00;101453.06;3586991;39;20055;-64
2021/06/18 05:12:31;;;;;;;66.47;53.03;;;;;;;19.93;100.00;101453.44;3586528;39;20056;-65
2021/06/18 05:17:49;;;;;;;74.05;58.65;;;;;;;20.01;100.00;101440.72;3592410;22;20055;-64
2021/06/18 05:20:19;;;;;;;73.70;57.67;;;;;;;19.99;100.00;101442.78;3605133;39;20079;-71
2021/06/18 05:22:46;;;;;;;72.38;56.45;;;;;;;19.99;100.00;101442.78;3606555;39;20061;-64
2021/06/18 05:25:14;;;;;;;70.38;54.47;;;;;;;19.97;100.00;101462.09;3605536;39;20065;-62
2021/06/18 05:27:41;;;;;;;76.60;59.75;;;;;;;20.02;100.00;101480.69;3607460;39;20035;-64
2021/06/18 05:30:10;;;;;;;69.20;55.42;;;;;;;19.78;100.00;101488.03;3605254;39;20291;-62
2021/06/18 05:32:40;;;;;;;;;;;;;;;19.59;100.00;101502.97;3606485;39;20048;-66
2021/06/18 05:35:07;;;;;;;79.35;59.25;;;;;;;19.71;100.00;101506.13;3607123;39;19944;-66
2021/06/18 05:37:34;;;;;;;72.50;57.28;;;;;;;19.82;100.00;101480.31;3605885;39;20075;-64
2021/06/18 05:40:00;;;;;;;65.40;54.22;;;;;;;19.82;100.00;101475.72;3606575;39;20070;-62
2021/06/18 05:42:28;;;;;;;66.00;53.70;;;;;;;19.95;100.00;101467.75;3601087;39;20042;-63
2021/06/18 05:44:55;;;;;;;76.68;59.70;;;;;;;20.09;100.00;101457.06;3601918;39;20427;-65
2021/06/18 05:47:21;;;;;;;67.30;54.33;;;;;;;20.14;100.00;101446.44;3604299;39;20284;-68
2021/06/18 05:49:47;;;;;;;73.97;59.53;;;;;;;20.33;100.00;101446.91;3607051;39;20045;-65
2021/06/18 05:52:14;;;;;;;61.85;52.75;;;;;;;20.59;100.00;101439.09;3604778;39;20374;-63
2021/06/18 05:54:40;;;;;;;64.55;54.08;;;;;;;20.80;100.00;101451.22;3605413;39;20410;-62
2021/06/18 05:57:07;;;;;;;61.88;51.22;;;;;;;20.96;100.00;101442.78;3605504;39;20331;-61
2021/06/18 05:59:35;;;;;;;70.72;54.50;;;;;;;21.05;100.00;101438.06;3606285;39;20061;-65
2021/06/18 06:02:01;;;;;;;67.43;54.70;;;;;;;21.22;100.00;101441.44;3607375;39;20047;-67
2021/06/18 06:04:28;;;;;;;66.78;54.00;;;;;;;21.13;100.00;101428.91;3605438;39;20349;-64
2021/06/18 06:06:54;;;;;;;62.05;50.67;;;;;;;21.01;100.00;101434.03;3605066;39;20049;-63
2021/06/18 06:09:21;;;;;;;68.25;57.05;;;;;;;20.80;100.00;101421.97;3605374;39;20031;-64
2021/06/18 06:11:47;;;;;;;69.22;55.17;;;;;;;20.77;100.00;101414.16;3607177;39;20048;-63
2021/06/18 06:14:19;;;;;;;64.10;52.60;;;;;;;20.83;100.00;101398.84;3606186;39;20291;-63
2021/06/18 06:16:47;;;;;;;59.10;49.35;;;;;;;20.89;100.00;101391.75;3607276;39;20073;-66
2021/06/18 06:19:14;;;;;;;70.18;52.80;;;;;;;20.80;100.00;101391.03;3605345;39;20047;-64
2021/06/18 06:21:41;;;;;;;65.70;54.80;;;;;;;20.67;100.00;101388.13;3607154;39;20390;-62
2021/06/18 06:24:08;;;;;;;68.63;52.53;;;;;;;20.47;100.00;101380.47;3605244;39;20035;-63
2021/06/18 06:26:35;;;;;;;71.70;59.15;;;;;;;20.66;100.00;101370.88;3606177;39;20051;-62
2021/06/18 06:29:01;;;;;;;67.93;55.63;;;;;;;20.51;100.00;101357.19;3606426;39;20076;-68
2021/06/18 06:31:28;;;;;;;67.20;56.47;;;;;;;20.36;100.00;101340.78;3605045;39;20055;-66
2021/06/18 06:33:56;;;;;;;70.65;60.03;;;;;;;20.35;100.00;101332.78;3606756;39;20039;-62
2021/06/18 06:36:23;;;;;;;77.93;62.05;;;;;;;20.50;100.00;101330.03;3606700;39;20077;-63
2021/06/18 06:38:49;;;;;;;79.32;60.03;;;;;;;20.61;100.00;101324.06;3607478;39;20050;-62
2021/06/18 06:41:16;;;;;;;78.72;60.80;;;;;;;21.05;100.00;101316.81;3607059;39;20667;-62
2021/06/18 06:43:42;;;;;;;68.30;59.20;;;;;;;21.22;100.00;101320.16;3605498;39;20051;-64
2021/06/18 06:46:09;;;;;;;65.22;54.50;;;;;;;21.29;100.00;101321.91;3604616;39;20058;-62
2021/06/18 06:48:35;;;;;;;66.88;54.30;;;;;;;21.11;100.00;101311.41;3604243;39;20065;-62
2021/06/18 06:51:03;;;;;;;67.78;51.80;;;;;;;21.11;100.00;101318.75;3604082;39;20108;-62
2021/06/18 06:53:29;;;;;;;63.20;51.47;;;;;;;21.28;100.00;101314.72;3606381;39;20309;-63
2021/06/18 06:55:56;;;;;;;64.13;50.75;;;;;;;21.26;100.00;101321.44;3605739;39;20066;-63
2021/06/18 06:58:22;;;;;;;66.32;53.80;;;;;;;21.08;100.00;101319.16;3606016;39;20079;-67
2021/06/18 07:00:50;;;;;;;59.08;51.60;;;;;;;21.12;100.00;101312.25;3607200;39;20408;-62
2021/06/18 07:03:16;;;;;;;56.70;45.75;;;;;;;21.20;100.00;101331.31;3607007;39;20535;-62
2021/06/18 07:05:43;;;;;;;56.35;48.63;;;;;;;21.10;100.00;101336.25;3606590;39;20046;-64
2021/06/18 07:08:19;;;;;;;54.70;45.88;;;;;;;21.37;100.00;101336.50;3606391;39;20525;-62
2021/06/18 07:10:45;;;;;;;50.15;44.70;;;;;;;21.53;100.00;101331.63;3607513;39;20055;-66
2021/06/18 07:13:12;;;;;;;48.70;42.65;;;;;;;21.54;100.00;101329.75;3606048;39;20357;-62
2021/06/18 07:15:39;;;;;;;50.85;44.33;;;;;;;21.37;100.00;101326.38;3606790;39;20049;-62
2021/06/18 07:18:05;;;;;;;52.30;42.15;;;;;;;21.47;100.00;101323.34;3606487;39;20070;-62
2021/06/18 07:20:32;;;;;;;51.90;44.35;;;;;;;21.56;100.00;101321.34;3606859;39;20048;-63
2021/06/18 07:22:59;;;;;;;52.25;42.05;;;;;;;21.67;100.00;101318.91;3609695;39;20063;-63
2021/06/18 07:25:27;;;;;;;43.40;37.38;;;;;;;21.74;100.00;101316.19;3608348;39;20057;-64
2021/06/18 07:27:53;;;;;;;39.90;35.53;;;;;;;21.75;100.00;101325.28;3608739;39;20063;-63
2021/06/18 07:30:22;;;;;;;41.25;35.10;;;;;;;21.76;100.00;101324.22;3607708;39;20058;-62
2021/06/18 07:33:10;;;;;;;;;;;;;;;22.00;100.00;101320.19;3648651;22;20058;-60
2021/06/18 07:35:37;;;;;;;40.63;36.08;;;;;;;21.93;100.00;101327.50;3566659;40;19966;-65
2021/06/18 07:38:04;;;;;;;38.97;32.30;;;;;;;21.77;100.00;101331.41;3567988;40;20065;-62
2021/06/18 07:40:33;;;;;;;40.40;33.70;;;;;;;21.84;100.00;101333.13;3567634;40;20046;-61
2021/06/18 07:43:00;;;;;;;37.53;31.35;;;;;;;21.77;100.00;101334.13;3566946;40;20053;-62
2021/06/18 07:45:27;;;;;;;38.03;32.20;;;;;;;21.55;100.00;101333.31;3566589;40;20061;-63
2021/06/18 07:47:53;;;;;;;32.50;29.00;;;;;;;21.65;100.00;101325.63;3567173;40;20096;-65
2021/06/18 07:50:20;;;;;;;36.20;29.70;;;;;;;21.72;100.00;101328.44;3566689;40;20057;-64
2021/06/18 07:52:47;;;;;;;33.58;30.00;;;;;;;21.93;100.00;101328.34;3567809;40;20294;-61
2021/06/18 07:55:18;;;;;;;30.98;27.70;;;;;;;21.89;100.00;101327.06;3566759;40;20061;-62
2021/06/18 07:57:46;;;;;;;29.17;25.33;;;;;;;21.83;100.00;101334.19;3566447;40;20048;-62
2021/06/18 08:00:13;;;;;;;27.30;24.37;;;;;;;21.82;100.00;101345.34;3566403;40;20034;-63
2021/06/18 08:02:40;;;;;;;31.20;27.25;;;;;;;21.68;100.00;101339.75;3566665;40;20063;-64
2021/06/18 08:05:10;;;;;;;28.45;25.48;;;;;;;21.72;100.00;101336.63;3566729;40;20059;-63
2021/06/18 08:07:36;;;;;;;28.50;25.40;;;;;;;21.82;100.00;101334.38;3567404;40;20041;-62
2021/06/18 08:10:04;;;;;;;26.63;22.05;;;;;;;21.79;100.00;101335.63;3566134;40;20327;-63
2021/06/18 08:12:30;;;;;;;24.25;21.58;;;;;;;21.86;100.00;101330.19;3567955;40;20139;-63
2021/06/18 08:14:58;;;;;;;27.08;23.75;;;;;;;;;;3567288;40;20481;-66
2021/06/18 08:17:24;;;;;;;28.15;23.90;;;;;;;21.73;100.00;101321.88;3566804;40;20087;-62
2021/06/18 08:19:52;;;;;;;24.48;21.98;;;;;;;21.55;100.00;101322.38;3567976;40;20050;-62
2021/06/18 08:22:18;;;;;;;28.42;25.42;;;;;;;21.59;100.00;101330.00;3568252;40;20182;-62
2021/06/18 08:24:45;;;;;;;31.75;25.02;;;;;;;21.61;100.00;101325.19;3567488;40;20062;-62
2021/06/18 08:27:11;;;;;;;25.45;22.65;;;;;;;21.73;100.00;101313.66;3568218;40;20049;-63
2021/06/18 08:29:38;;;;;;;25.13;22.17;;;;;;;21.90;100.00;101306.84;3569000;40;20085;-64
2021/06/18 08:32:07;;;;;;;24.95;22.35;;;;;;;21.86;100.00;101313.75;3567768;40;20067;-62
2021/06/18 08:34:33;;;;;;;28.15;25.15;;;;;;;21.85;100.00;101306.59;3568621;40;20307;-62
2021/06/18 08:37:00;;;;;;;26.55;23.85;;;;;;;21.93;100.00;101302.84;3568474;40;20063;-62
2021/06/18 08:39:26;;;;;;;26.45;21.98;;;;;;;21.86;100.00;101289.97;3568824;40;20081;-62
2021/06/18 08:41:52;;;;;;;27.40;24.52;;;;;;;21.88;100.00;101284.28;3568457;40;20129;-64
2021/06/18 08:44:20;;;;;;;32.13;23.95;;;;;;;22.04;100.00;101289.44;3567599;40;20033;-65
2021/06/18 08:46:47;;;;;;;24.63;22.05;;;;;;;22.12;100.00;101271.97;3568311;40;20378;-63
2021/06/18 08:49:15;;;;;;;25.20;22.50;;;;;;;22.08;100.00;101256.13;3568204;40;20320;-62
2021/06/18 08:54:08;;;;;;;25.00;22.40;;;;;;;22.08;100.00;101250.66;3623619;22;20364;-62
2021/06/18 08:56:35;;;;;;;23.52;21.13;;;;;;;22.16;100.00;101254.06;3597462;39;20082;-64
2021/06/18 08:59:01;;;;;;;24.13;21.52;;;;;;;22.26;100.00;101248.22;3598307;39;20070;-65
2021/06/18 09:01:28;;;;;;;23.33;20.92;;;;;;;22.22;100.00;101238.69;3598311;39;20309;-62
2021/06/18 09:03:55;;;;;;;24.88;22.27;;;;;;;22.25;100.00;101246.50;3599101;39;20055;-62
2021/06/18 09:06:34;;;;;;;24.35;21.75;;;;;;;22.24;100.00;101250.31;3598946;39;20064;-62
2021/06/18 09:09:15;;;;;;;25.30;22.80;;;;;;;22.32;100.00;101241.94;3597270;39;20535;-63
2021/06/18 09:11:44;;;;;;;23.92;21.42;;;;;;;22.49;100.00;101233.34;3597891;39;20052;-63
2021/06/18 09:14:30;;;;;;;25.88;21.95;;;;;;;22.60;100.00;101242.88;3596541;39;20063;-63
2021/06/18 09:17:06;;;;;;;22.67;20.35;;;;;;;22.90;100.00;101248.84;3596157;39;20315;-64
2021/06/18 09:19:35;;;;;;;23.58;21.27;;;;;;;23.48;100.00;101244.69;3596928;39;20067;-62
2021/06/18 09:22:05;;;;;;;21.80;19.60;;;;;;;24.15;100.00;101250.91;3598199;39;20055;-61
2021/06/18 09:24:33;;;;;;;20.40;18.27;;;;;;;24.81;100.00;101244.28;3597422;39;20064;-64
2021/06/18 09:27:01;;;;;;;17.50;15.80;;;;;;;24.91;100.00;101246.56;3597958;39;20040;-64
2021/06/18 09:29:28;;;;;;;19.75;15.55;;;;;;;25.19;100.00;101242.50;3596856;39;20054;-65
2021/06/18 09:31:59;;;;;;;17.50;15.80;;;;;;;25.02;100.00;101234.78;3598589;39;20087;-63
2021/06/18 09:34:30;;;;;;;16.98;15.27;;;;;;;24.75;100.00;101225.91;3596804;39;20091;-63
2021/06/18 09:37:14;;;;;;;16.15;14.20;;;;;;;24.51;100.00;101232.13;3597365;39;20048;-63
2021/06/18 09:40:08;;;;;;;16.08;14.45;;;;;;;24.57;100.00;101231.25;3597750;39;20046;-62
2021/06/18 09:42:37;;;;;;;15.07;13.55;;;;;;;25.19;100.00;101240.63;3595949;39;20060;-62
2021/06/18 09:45:10;;;;;;;16.13;13.45;;;;;;;25.30;100.00;101243.72;3597403;39;20448;-64
2021/06/18 09:47:37;;;;;;;14.60;12.70;;;;;;;25.33;100.00;101240.53;3599111;39;20056;-64
2021/06/18 09:50:06;;;;;;;16.25;14.57;;;;;;;25.33;100.00;101252.38;3598195;39;20060;-65
2021/06/18 09:52:36;;;;;;;16.98;13.95;;;;;;;25.47;100.00;101242.09;3598597;39;20056;-64
2021/06/18 09:57:58;;;;;;;14.65;13.10;;;;;;;26.05;100.00;101238.13;3589628;22;20139;-64
2021/06/18 10:00:26;;;;;;;12.02;10.27;;;;;;;25.92;100.00;101238.25;3588237;39;20369;-62
2021/06/18 10:02:54;;;;;;;14.88;11.43;;;;;;;26.04;100.00;101241.97;3588394;40;20050;-63
2021/06/18 10:05:22;;;;;;;14.32;12.85;;;;;;;26.10;100.00;101248.47;3587840;39;20063;-64
2021/06/18 10:07:51;;;;;;;15.63;12.93;;;;;;;26.10;100.00;101248.47;3588297;40;20053;-63
2021/06/18 10:10:20;;;;;;;12.75;11.52;;;;;;;26.26;100.00;101251.69;3588826;40;20045;-64
2021/06/18 10:12:47;;;;;;;;;;;;;;;26.82;100.00;101236.69;3588496;40;20041;-63
2021/06/18 10:15:16;;;;;;;15.52;12.63;;;;;;;26.87;100.00;101239.63;3587272;39;20221;-63
2021/06/18 10:17:43;;;;;;;;;;;;;;;26.73;100.00;101229.84;3588032;39;20044;-65
2021/06/18 10:20:12;;;;;;;13.25;11.45;;;;;;;27.25;100.00;101215.41;3586228;39;20362;-64
2021/06/18 10:22:47;;;;;;;15.05;11.70;;;;;;;26.99;100.00;101225.00;3586831;39;20052;-64
2021/06/18 10:25:18;;;;;;;14.15;11.90;;;;;;;26.78;100.00;101221.72;3587295;39;20402;-63
2021/06/18 10:27:47;;;;;;;12.82;11.45;;;;;;;26.74;100.00;101217.72;3586732;39;20091;-66
2021/06/18 10:30:28;;;;;;;11.45;10.30;;;;;;;27.41;100.00;101217.50;3586232;40;20043;-65
2021/06/18 10:32:56;;;;;;;12.35;11.00;;;;;;;27.71;100.00;101212.91;3586386;40;20122;-59
2021/06/18 10:35:51;;;;;;;11.75;9.15;;;;;;;27.55;100.00;101209.81;3586419;39;20078;-66
2021/06/18 10:38:36;;;;;;;8.82;7.93;;;;;;;27.79;100.00;101201.47;3587165;39;20388;-65
2021/06/18 10:41:23;;;;;;;11.05;9.88;;;;;;;27.46;100.00;101208.50;3585495;40;20068;-65
2021/06/18 10:43:51;;;;;;;12.77;8.85;;;;;;;27.69;100.00;101212.31;3585882;39;20043;-66
2021/06/18 10:46:19;;;;;;;13.85;9.55;;;;;;;27.51;100.00;101205.84;3584784;39;20048;-65
2021/06/18 10:49:06;;;;;;;10.43;9.43;;;;;;;27.59;100.00;101202.72;3587463;39;20041;-64
2021/06/18 10:51:41;;;;;;;12.18;9.30;;;;;;;28.30;100.00;101191.50;3587728;40;20381;-66
2021/06/18 10:54:11;;;;;;;9.02;7.55;;;;;;;28.68;100.00;101186.44;3586705;39;20067;-65
2021/06/18 10:57:12;;;;;;;10.63;8.32;;;;;;;28.22;100.00;101188.28;3587912;39;20044;-65
2021/06/18 10:59:43;;;;;;;12.23;8.70;;;;;;;28.49;100.00;101183.00;3589292;40;20044;-64
2021/06/18 11:02:40;;;;;;;11.88;7.65;;;;;;;28.95;100.00;101178.31;3588805;40;20056;-65
2021/06/18 11:05:38;;;;;;;11.43;7.65;;;;;;;28.37;100.00;101188.59;3559782;40;20057;-65
2021/06/18 11:08:29;;;;;;;11.80;9.20;;;;;;;28.41;100.00;101180.63;3586987;40;20051;-63
2021/06/18 11:10:58;;;;;;;9.70;7.82;;;;;;;28.62;100.00;101177.19;3589733;39;20118;-66
2021/06/18 11:13:27;;;;;;;9.57;7.80;;;;;;;29.06;100.00;101187.63;3588941;40;20044;-66
2021/06/18 11:15:53;;;;;;;;;;;;;;;29.01;100.00;101180.06;3589772;40;20084;-66
2021/06/18 11:18:32;;;;;;;8.35;7.30;;;;;;;28.98;100.00;101171.44;3588623;40;19932;-65
2021/06/18 11:21:01;;;;;;;8.50;7.60;;;;;;;29.00;100.00;101172.88;3588301;40;20138;-65
2021/06/18 11:23:32;;;;;;;7.70;6.60;;;;;;;28.91;100.00;101167.97;3589133;40;20054;-64
2021/06/18 11:26:03;;;;;;;10.15;6.00;;;;;;;29.56;100.00;101180.34;3587190;40;20044;-66
2021/06/18 11:28:52;;;;;;;7.35;5.75;;;;;;;29.44;100.00;101174.09;3587355;40;20052;-64